createdAt,value
2017-10-02T00:02:13.911Z,8.90
2017-10-02T00:04:41.406Z,8.90
2017-10-02T00:07:08.895Z,8.90
2017-10-02T00:09:36.423Z,8.90
2017-10-02T00:12:03.935Z,8.90
2017-10-02T00:14:32.246Z,8.90
2017-10-02T00:16:59.767Z,8.90
2017-10-02T00:19:27.259Z,8.90
2017-10-02T00:21:55.551Z,8.90
2017-10-02T00:24:23.506Z,8.80
2017-10-02T00:26:50.997Z,8.90
2017-10-02T00:29:18.536Z,8.80
2017-10-02T00:31:46.056Z,8.80
2017-10-02T00:34:14.334Z,8.80
2017-10-02T00:36:41.892Z,8.80
2017-10-02T00:39:10.153Z,8.80
2017-10-02T00:41:37.658Z,8.80
2017-10-02T00:44:05.182Z,8.80
2017-10-02T00:46:32.687Z,8.80
2017-10-02T00:49:00.204Z,8.80
2017-10-02T00:51:28.482Z,8.80
2017-10-02T00:53:56.777Z,8.80
2017-10-02T00:56:24.270Z,8.70
2017-10-02T00:58:51.851Z,8.70
2017-10-02T01:01:19.355Z,8.80
2017-10-02T01:03:46.849Z,8.70
2017-10-02T01:06:14.372Z,8.70
2017-10-02T01:08:41.879Z,8.70
2017-10-02T01:11:09.388Z,8.70
2017-10-02T01:13:36.903Z,8.70
2017-10-02T01:16:04.402Z,8.70
2017-10-02T01:18:31.912Z,8.60
2017-10-02T01:20:59.440Z,8.60
2017-10-02T01:23:26.942Z,8.60
2017-10-02T01:25:54.418Z,8.60
2017-10-02T01:28:21.989Z,8.60
2017-10-02T01:30:49.531Z,8.60
2017-10-02T01:33:17.034Z,8.50
2017-10-02T01:35:44.630Z,8.50
2017-10-02T01:38:12.991Z,8.50
2017-10-02T01:40:40.503Z,8.50
2017-10-02T01:43:08.027Z,8.50
2017-10-02T01:45:35.541Z,8.40
2017-10-02T01:48:03.036Z,8.40
2017-10-02T01:50:30.678Z,8.40
2017-10-02T01:52:58.198Z,8.50
2017-10-02T01:55:25.702Z,8.50
2017-10-02T01:57:53.277Z,8.50
2017-10-02T02:00:20.779Z,8.50
2017-10-02T02:02:48.286Z,8.50
2017-10-02T02:05:15.835Z,8.40
2017-10-02T02:07:43.334Z,8.40
2017-10-02T02:10:10.837Z,8.40
2017-10-02T02:12:38.357Z,8.40
2017-10-02T02:15:05.851Z,8.30
2017-10-02T02:17:34.118Z,8.30
2017-10-02T02:20:02.419Z,8.30
2017-10-02T02:22:30.688Z,8.30
2017-10-02T02:24:58.195Z,8.30
2017-10-02T02:27:25.733Z,8.40
2017-10-02T02:29:53.227Z,8.30
2017-10-02T02:32:20.727Z,8.40
2017-10-02T02:34:48.250Z,8.40
2017-10-02T02:37:15.738Z,8.40
2017-10-02T02:39:44.008Z,8.40
2017-10-02T02:42:12.326Z,8.40
2017-10-02T02:44:39.859Z,8.30
2017-10-02T02:47:07.376Z,8.40
2017-10-02T02:49:39.665Z,8.40
2017-10-02T02:52:07.929Z,8.40
2017-10-02T02:54:35.435Z,8.40
2017-10-02T02:57:02.975Z,8.40
2017-10-02T02:59:30.559Z,8.40
2017-10-02T03:01:58.061Z,8.40
2017-10-02T03:04:25.561Z,8.40
2017-10-02T03:06:53.119Z,8.40
2017-10-02T03:09:20.622Z,8.40
2017-10-02T03:11:48.135Z,8.40
2017-10-02T03:14:16.424Z,8.40
2017-10-02T03:16:43.932Z,8.40
2017-10-02T03:19:11.442Z,8.40
2017-10-02T03:21:39.008Z,8.40
2017-10-02T03:24:06.517Z,8.30
2017-10-02T03:26:34.013Z,8.30
2017-10-02T03:29:01.582Z,8.30
2017-10-02T03:31:29.098Z,8.30
2017-10-02T03:33:56.591Z,8.30
2017-10-02T03:36:24.103Z,8.30
2017-10-02T03:38:52.387Z,8.20
2017-10-02T03:41:20.103Z,8.20
2017-10-02T03:43:47.642Z,8.20
2017-10-02T03:46:15.143Z,8.20
2017-10-02T03:48:42.643Z,8.20
2017-10-02T03:51:10.159Z,8.20
2017-10-02T03:53:37.655Z,8.20
2017-10-02T03:56:05.174Z,8.10
2017-10-02T03:58:32.731Z,8.10
2017-10-02T04:01:00.255Z,8.10
2017-10-02T04:03:27.747Z,8.10
2017-10-02T04:05:55.253Z,8.10
2017-10-02T04:08:22.793Z,8.00
2017-10-02T04:10:50.310Z,8.00
2017-10-02T04:13:17.822Z,8.00
2017-10-02T04:15:45.351Z,8.10
2017-10-02T04:18:12.875Z,8.10
2017-10-02T04:20:40.375Z,8.10
2017-10-02T04:23:07.893Z,8.10
2017-10-02T04:25:36.178Z,8.20
2017-10-02T04:28:03.797Z,8.10
2017-10-02T04:30:31.307Z,8.20
2017-10-02T04:32:58.818Z,8.20
2017-10-02T04:35:26.322Z,8.20
2017-10-02T04:37:53.836Z,8.20
2017-10-02T04:40:21.361Z,8.30
2017-10-02T04:42:48.868Z,8.20
2017-10-02T04:45:16.363Z,8.30
2017-10-02T04:47:43.911Z,8.30
2017-10-02T04:50:11.430Z,8.30
2017-10-02T04:52:38.936Z,8.30
2017-10-02T04:55:06.479Z,8.40
2017-10-02T04:57:33.985Z,8.40
2017-10-02T05:00:02.279Z,8.40
2017-10-02T05:02:30.694Z,8.40
2017-10-02T05:04:58.199Z,8.40
2017-10-02T05:07:25.748Z,8.40
2017-10-02T05:09:53.363Z,8.40
2017-10-02T05:12:20.862Z,8.40
2017-10-02T05:14:48.378Z,8.40
2017-10-02T05:17:15.917Z,8.40
2017-10-02T05:19:43.411Z,8.50
2017-10-02T05:22:10.942Z,8.50
2017-10-02T05:24:38.540Z,8.60
2017-10-02T05:27:06.071Z,8.60
2017-10-02T05:29:33.585Z,8.70
2017-10-02T05:32:01.087Z,8.70
2017-10-02T05:34:28.614Z,8.70
2017-10-02T05:36:56.115Z,8.70
2017-10-02T05:39:24.400Z,8.80
2017-10-02T05:41:52.692Z,8.90
2017-10-02T05:44:20.969Z,8.90
2017-10-02T05:46:48.514Z,8.90
2017-10-02T05:49:16.024Z,9.00
2017-10-02T05:51:43.562Z,9.10
2017-10-02T05:54:11.083Z,9.20
2017-10-02T05:56:38.591Z,9.30
2017-10-02T05:59:06.261Z,9.30
2017-10-02T06:01:33.772Z,9.40
2017-10-02T06:04:02.038Z,9.50
2017-10-02T06:06:29.630Z,9.40
2017-10-02T06:08:57.155Z,9.50
2017-10-02T06:11:24.674Z,9.60
2017-10-02T06:13:52.311Z,9.70
2017-10-02T06:16:19.838Z,9.80
2017-10-02T06:18:47.351Z,9.90
2017-10-02T06:21:14.888Z,10.00
2017-10-02T06:23:42.392Z,10.10
2017-10-02T06:26:09.895Z,10.20
2017-10-02T06:28:37.557Z,10.20
2017-10-02T06:31:05.138Z,10.20
2017-10-02T06:33:32.639Z,10.20
2017-10-02T06:36:00.166Z,10.30
2017-10-02T06:38:28.547Z,10.30
2017-10-02T06:40:56.076Z,10.20
2017-10-02T06:43:24.367Z,10.10
2017-10-02T06:45:51.881Z,10.10
2017-10-02T06:48:19.413Z,10.10
2017-10-02T06:50:46.953Z,10.10
2017-10-02T06:53:14.466Z,10.10
2017-10-02T06:55:41.982Z,10.10
2017-10-02T06:58:09.574Z,10.10
2017-10-02T07:00:37.122Z,10.10
2017-10-02T07:03:04.643Z,10.10
2017-10-02T07:05:32.245Z,10.10
2017-10-02T07:07:59.760Z,10.20
2017-10-02T07:10:27.273Z,10.20
2017-10-02T07:12:54.877Z,10.30
2017-10-02T07:15:22.404Z,10.30
2017-10-02T07:17:49.932Z,10.40
2017-10-02T07:20:17.555Z,10.40
2017-10-02T07:22:46.299Z,10.50
2017-10-02T07:25:13.901Z,10.40
2017-10-02T07:27:42.190Z,10.60
2017-10-02T07:30:09.691Z,10.50
2017-10-02T07:32:38.493Z,10.70
2017-10-02T07:35:06.166Z,10.80
2017-10-02T07:37:33.686Z,10.90
2017-10-02T07:40:01.279Z,11.00
2017-10-02T07:42:28.817Z,11.20
2017-10-02T07:44:56.325Z,11.30
2017-10-02T07:47:23.934Z,11.50
2017-10-02T07:49:52.023Z,11.70
2017-10-02T07:52:19.620Z,11.90
2017-10-02T07:54:47.225Z,12.10
2017-10-02T07:57:14.747Z,12.30
2017-10-02T07:59:42.272Z,12.50
2017-10-02T08:02:09.793Z,12.60
2017-10-02T08:04:37.339Z,12.80
2017-10-02T08:07:04.846Z,12.90
2017-10-02T08:09:32.370Z,13.00
2017-10-02T08:11:59.919Z,13.00
2017-10-02T08:14:27.493Z,13.10
2017-10-02T08:16:55.182Z,13.10
2017-10-02T08:19:22.706Z,13.10
2017-10-02T08:21:51.000Z,13.10
2017-10-02T08:24:18.673Z,13.20
2017-10-02T08:26:46.308Z,13.20
2017-10-02T08:29:14.499Z,13.20
2017-10-02T08:31:41.993Z,13.30
2017-10-02T08:34:09.551Z,13.30
2017-10-02T08:36:37.066Z,13.30
2017-10-02T08:39:04.591Z,13.30
2017-10-02T08:41:32.114Z,13.30
2017-10-02T08:43:59.649Z,13.20
2017-10-02T08:46:27.157Z,13.20
2017-10-02T08:48:54.699Z,13.20
2017-10-02T08:51:22.228Z,13.20
2017-10-02T08:53:49.737Z,13.20
2017-10-02T08:56:17.257Z,13.20
2017-10-02T08:58:44.805Z,13.20
2017-10-02T09:01:12.321Z,13.30
2017-10-02T09:03:39.822Z,13.30
2017-10-02T09:06:07.342Z,13.30
2017-10-02T09:08:35.616Z,13.40
2017-10-02T09:11:03.131Z,13.40
2017-10-02T09:13:30.664Z,13.40
2017-10-02T09:15:58.406Z,13.50
2017-10-02T09:18:27.181Z,13.50
2017-10-02T09:20:54.702Z,13.50
2017-10-02T09:23:22.207Z,13.60
2017-10-02T09:25:49.720Z,13.60
2017-10-02T09:28:17.262Z,13.70
2017-10-02T09:30:44.750Z,13.80
2017-10-02T09:33:12.271Z,13.90
2017-10-02T09:35:40.558Z,13.90
2017-10-02T09:38:08.051Z,13.90
2017-10-02T09:40:35.557Z,14.00
2017-10-02T09:43:03.097Z,14.00
2017-10-02T09:45:30.612Z,14.10
2017-10-02T09:47:58.114Z,14.10
2017-10-02T09:50:25.650Z,14.10
2017-10-02T09:52:53.163Z,14.20
2017-10-02T09:55:20.674Z,14.20
2017-10-02T09:57:48.194Z,14.20
2017-10-02T10:00:15.716Z,14.20
2017-10-02T10:02:43.993Z,14.30
2017-10-02T10:05:11.510Z,14.30
2017-10-02T10:07:39.034Z,14.30
2017-10-02T10:10:06.544Z,14.30
2017-10-02T10:12:34.074Z,14.40
2017-10-02T10:15:01.579Z,14.40
2017-10-02T10:17:29.091Z,14.50
2017-10-02T10:19:56.618Z,14.60
2017-10-02T10:22:24.906Z,14.70
2017-10-02T10:24:53.177Z,14.70
2017-10-02T10:27:21.471Z,14.70
2017-10-02T10:29:48.970Z,14.70
2017-10-02T10:32:16.475Z,14.80
2017-10-02T10:34:44.101Z,14.80
2017-10-02T10:37:11.864Z,14.80
2017-10-02T10:39:39.478Z,14.80
2017-10-02T10:42:07.046Z,14.90
2017-10-02T10:44:34.544Z,14.90
2017-10-02T10:47:02.063Z,14.90
2017-10-02T10:49:29.742Z,15.00
2017-10-02T10:51:57.263Z,15.00
2017-10-02T10:54:25.550Z,15.10
2017-10-02T10:56:53.824Z,15.10
2017-10-02T10:59:22.233Z,15.10
2017-10-02T11:01:49.762Z,15.00
2017-10-02T11:04:18.031Z,15.10
2017-10-02T11:06:46.294Z,15.20
2017-10-02T11:09:13.830Z,15.20
2017-10-02T11:11:41.576Z,15.30
2017-10-02T11:14:09.116Z,15.30
2017-10-02T11:16:36.628Z,15.30
2017-10-02T11:19:04.123Z,15.30
2017-10-02T11:21:31.653Z,15.40
2017-10-02T11:23:59.945Z,15.50
2017-10-02T11:26:28.238Z,15.50
2017-10-02T11:28:56.525Z,15.50
2017-10-02T11:31:24.057Z,15.40
2017-10-02T11:33:51.758Z,15.50
2017-10-02T11:36:19.295Z,15.50
2017-10-02T11:38:47.567Z,15.50
2017-10-02T11:41:19.426Z,15.50
2017-10-02T11:43:47.042Z,15.50
2017-10-02T11:46:14.536Z,15.60
2017-10-02T11:48:42.023Z,15.60
2017-10-02T11:51:09.548Z,15.60
2017-10-02T11:53:37.039Z,15.70
2017-10-02T11:56:06.143Z,15.70
2017-10-02T11:58:33.822Z,15.80
2017-10-02T12:01:06.116Z,15.80
2017-10-02T12:03:34.418Z,15.90
2017-10-02T12:06:01.980Z,15.80
2017-10-02T12:08:30.257Z,15.90
2017-10-02T12:10:57.754Z,15.90
2017-10-02T12:13:25.368Z,15.90
2017-10-02T12:15:52.924Z,16.00
2017-10-02T12:18:20.498Z,15.90
2017-10-02T12:20:48.786Z,15.90
2017-10-02T12:23:17.057Z,15.90
2017-10-02T12:25:44.573Z,15.90
2017-10-02T12:28:12.374Z,15.90
2017-10-02T12:30:39.888Z,15.90
2017-10-02T12:33:07.413Z,15.90
2017-10-02T12:35:35.702Z,15.80
2017-10-02T12:38:03.961Z,15.70
2017-10-02T12:40:32.261Z,15.70
2017-10-02T12:42:59.770Z,15.70
2017-10-02T12:45:27.275Z,15.70
2017-10-02T12:47:54.806Z,15.60
2017-10-02T12:50:22.518Z,15.60
2017-10-02T12:52:50.030Z,15.50
2017-10-02T12:55:17.559Z,15.50
2017-10-02T12:57:45.132Z,15.50
2017-10-02T13:00:12.685Z,15.40
2017-10-02T13:02:40.207Z,15.40
2017-10-02T13:05:07.726Z,15.40
2017-10-02T13:07:35.234Z,15.30
2017-10-02T13:10:02.757Z,15.30
2017-10-02T13:12:30.280Z,15.30
2017-10-02T13:14:58.543Z,15.20
2017-10-02T13:17:26.080Z,15.20
2017-10-02T13:19:53.591Z,15.20
2017-10-02T13:22:21.090Z,15.20
2017-10-02T13:24:48.619Z,15.20
2017-10-02T13:27:16.128Z,15.20
2017-10-02T13:29:43.626Z,15.20
2017-10-02T13:32:11.143Z,15.20
2017-10-02T13:34:38.637Z,15.20
2017-10-02T13:37:06.159Z,15.20
2017-10-02T13:39:33.666Z,15.20
2017-10-02T13:42:01.176Z,15.20
2017-10-02T13:44:28.694Z,15.20
2017-10-02T13:46:56.210Z,15.20
2017-10-02T13:49:23.706Z,15.10
2017-10-02T13:51:51.231Z,15.20
2017-10-02T13:54:18.731Z,15.20
2017-10-02T13:56:46.282Z,15.20
2017-10-02T13:59:13.818Z,15.20
2017-10-02T14:01:41.329Z,15.30
2017-10-02T14:04:09.654Z,15.30
2017-10-02T14:06:37.197Z,15.30
2017-10-02T14:09:04.725Z,15.30
2017-10-02T14:11:32.286Z,15.30
2017-10-02T14:14:00.714Z,15.40
2017-10-02T14:16:28.244Z,15.40
2017-10-02T14:18:55.762Z,15.40
2017-10-02T14:21:23.417Z,15.40
2017-10-02T14:23:50.919Z,15.50
2017-10-02T14:26:18.416Z,15.50
2017-10-02T14:28:45.930Z,15.50
2017-10-02T14:31:13.424Z,15.50
2017-10-02T14:33:40.972Z,15.50
2017-10-02T14:36:08.497Z,15.50
2017-10-02T14:38:36.771Z,15.50
2017-10-02T14:41:04.281Z,15.50
2017-10-02T14:43:32.050Z,15.50
2017-10-02T14:45:59.657Z,15.50
2017-10-02T14:48:27.697Z,15.50
2017-10-02T14:50:55.225Z,15.40
2017-10-02T14:53:22.734Z,15.40
2017-10-02T14:55:50.275Z,15.40
2017-10-02T14:58:17.806Z,15.40
2017-10-02T15:00:45.322Z,15.40
2017-10-02T15:03:12.834Z,15.40
2017-10-02T15:05:40.360Z,15.40
2017-10-02T15:08:08.631Z,15.40
2017-10-02T15:10:36.242Z,15.40
2017-10-02T15:13:04.056Z,15.40
2017-10-02T15:15:31.890Z,15.40
2017-10-02T15:18:00.938Z,15.40
2017-10-02T15:20:28.479Z,15.40
2017-10-02T15:22:56.755Z,15.40
2017-10-02T15:25:24.273Z,15.40
2017-10-02T15:27:51.798Z,15.40
2017-10-02T15:30:19.306Z,15.50
2017-10-02T15:32:46.851Z,15.50
2017-10-02T15:35:14.359Z,15.50
2017-10-02T15:37:42.680Z,15.40
2017-10-02T15:40:10.536Z,15.40
2017-10-02T15:42:38.030Z,15.40
2017-10-02T15:45:05.528Z,15.40
2017-10-02T15:47:33.063Z,15.40
2017-10-02T15:50:00.782Z,15.40
2017-10-02T15:52:28.366Z,15.40
2017-10-02T15:54:55.904Z,15.40
2017-10-02T15:57:23.422Z,15.40
2017-10-02T15:59:50.983Z,15.40
2017-10-02T16:02:19.274Z,15.30
2017-10-02T16:04:46.821Z,15.30
2017-10-02T16:07:14.351Z,15.30
2017-10-02T16:09:41.867Z,15.30
2017-10-02T16:12:09.367Z,15.30
2017-10-02T16:14:36.887Z,15.30
2017-10-02T16:17:04.911Z,15.30
2017-10-02T16:19:32.526Z,15.30
2017-10-02T16:22:00.049Z,15.30
2017-10-02T16:24:27.589Z,15.30
2017-10-02T16:26:56.223Z,15.30
2017-10-02T16:29:23.753Z,15.20
2017-10-02T16:31:52.026Z,15.20
2017-10-02T16:34:20.333Z,15.20
2017-10-02T16:36:47.830Z,15.20
2017-10-02T16:39:15.334Z,15.20
2017-10-02T16:41:42.861Z,15.20
2017-10-02T16:44:10.381Z,15.20
2017-10-02T16:46:37.914Z,15.20
2017-10-02T16:49:08.376Z,15.20
2017-10-02T16:51:36.942Z,15.20
2017-10-02T16:54:05.537Z,15.20
2017-10-02T16:56:33.064Z,15.20
2017-10-02T16:59:00.588Z,15.20
2017-10-02T17:01:28.100Z,15.20
2017-10-02T17:03:55.603Z,15.20
2017-10-02T17:06:23.131Z,15.20
2017-10-02T17:08:50.626Z,15.20
2017-10-02T17:11:18.123Z,15.10
2017-10-02T17:13:45.645Z,15.10
2017-10-02T17:16:14.089Z,15.10
2017-10-02T17:18:41.623Z,15.10
2017-10-02T17:21:09.910Z,15.10
2017-10-02T17:23:37.415Z,15.10
2017-10-02T17:26:04.923Z,15.10
2017-10-02T17:28:32.455Z,15.10
2017-10-02T17:30:59.995Z,15.10
2017-10-02T17:33:27.518Z,15.10
2017-10-02T17:35:55.054Z,15.10
2017-10-02T17:38:23.328Z,15.10
2017-10-02T17:40:51.613Z,15.10
2017-10-02T17:43:19.907Z,15.00
2017-10-02T17:45:47.418Z,15.10
2017-10-02T17:48:15.033Z,15.10
2017-10-02T17:50:42.595Z,15.00
2017-10-02T17:53:10.107Z,15.00
2017-10-02T17:55:38.398Z,15.00
2017-10-02T17:58:06.715Z,15.00
2017-10-02T18:00:34.235Z,15.00
2017-10-02T18:03:01.751Z,15.00
2017-10-02T18:05:29.279Z,15.00
2017-10-02T18:07:56.818Z,15.00
2017-10-02T18:10:24.315Z,15.00
2017-10-02T18:12:51.840Z,15.00
2017-10-02T18:15:19.399Z,15.00
2017-10-02T18:17:47.665Z,15.00
2017-10-02T18:20:15.971Z,15.00
2017-10-02T18:22:43.495Z,15.00
2017-10-02T18:25:10.982Z,15.00
2017-10-02T18:27:39.431Z,15.00
2017-10-02T18:30:07.067Z,15.00
2017-10-02T18:32:34.636Z,15.10
2017-10-02T18:35:02.920Z,15.00
2017-10-02T18:37:30.559Z,15.00
2017-10-02T18:39:58.049Z,15.00
2017-10-02T18:42:25.627Z,15.00
2017-10-02T18:44:53.916Z,15.00
2017-10-02T18:47:22.241Z,15.00
2017-10-02T18:49:49.794Z,15.00
2017-10-02T18:52:17.308Z,15.00
2017-10-02T18:54:44.892Z,15.00
2017-10-02T18:57:12.529Z,15.00
2017-10-02T18:59:40.060Z,15.00
2017-10-02T19:02:07.598Z,15.00
2017-10-02T19:04:35.130Z,15.00
2017-10-02T19:07:02.732Z,15.00
2017-10-02T19:09:30.250Z,14.90
2017-10-02T19:11:57.781Z,14.90
2017-10-02T19:14:26.060Z,15.00
2017-10-02T19:16:53.786Z,15.00
2017-10-02T19:19:21.380Z,15.00
2017-10-02T19:21:49.660Z,15.00
2017-10-02T19:24:18.013Z,15.00
2017-10-02T19:26:45.587Z,15.00
2017-10-02T19:29:13.876Z,15.00
2017-10-02T19:31:41.373Z,15.00
2017-10-02T19:34:08.915Z,15.00
2017-10-02T19:36:36.456Z,15.00
2017-10-02T19:39:04.949Z,15.00
2017-10-02T19:41:32.514Z,15.00
2017-10-02T19:44:00.027Z,15.00
2017-10-02T19:46:27.589Z,15.00
2017-10-02T19:48:55.147Z,15.00
2017-10-02T19:51:22.978Z,15.00
2017-10-02T19:53:50.574Z,15.00
2017-10-02T19:56:18.116Z,15.00
2017-10-02T19:58:45.638Z,15.00
2017-10-02T20:01:13.928Z,15.00
2017-10-02T20:03:41.925Z,15.00
2017-10-02T20:06:09.554Z,15.00
2017-10-02T20:08:37.149Z,15.00
2017-10-02T20:11:04.694Z,15.10
2017-10-02T20:13:32.241Z,15.10
2017-10-02T20:15:59.772Z,15.10
2017-10-02T20:18:27.740Z,15.10
2017-10-02T20:20:56.103Z,15.10
2017-10-02T20:23:23.606Z,15.00
2017-10-02T20:25:51.364Z,15.10
2017-10-02T20:28:18.899Z,15.10
2017-10-02T20:30:46.423Z,15.10
2017-10-02T20:33:13.919Z,15.10
2017-10-02T20:35:41.480Z,15.10
2017-10-02T20:38:09.034Z,15.10
2017-10-02T20:40:36.587Z,15.10
2017-10-02T20:43:04.114Z,15.10
2017-10-02T20:45:31.697Z,15.10
2017-10-02T20:47:59.189Z,15.10
2017-10-02T20:50:26.738Z,15.10
2017-10-02T20:52:54.286Z,15.10
2017-10-02T20:55:21.783Z,15.10
2017-10-02T20:57:50.068Z,15.10
2017-10-02T21:00:17.605Z,15.10
2017-10-02T21:02:45.897Z,15.10
2017-10-02T21:05:13.496Z,15.10
2017-10-02T21:07:40.991Z,15.10
2017-10-02T21:10:08.501Z,15.10
2017-10-02T21:12:36.060Z,15.10
2017-10-02T21:15:03.690Z,15.10
2017-10-02T21:17:31.246Z,15.10
2017-10-02T21:19:59.621Z,15.10
2017-10-02T21:22:28.018Z,15.10
2017-10-02T21:24:56.279Z,15.10
2017-10-02T21:27:24.567Z,15.10
2017-10-02T21:29:52.899Z,15.10
2017-10-02T21:32:20.410Z,15.10
2017-10-02T21:34:47.998Z,15.20
2017-10-02T21:37:17.208Z,15.20
2017-10-02T21:39:49.311Z,15.20
2017-10-02T21:42:16.835Z,15.20
2017-10-02T21:44:44.375Z,15.20
2017-10-02T21:47:11.990Z,15.20
2017-10-02T21:49:39.521Z,15.20
2017-10-02T21:52:07.134Z,15.20
2017-10-02T21:54:34.698Z,15.20
2017-10-02T21:57:02.984Z,15.10
2017-10-02T21:59:30.572Z,15.10
2017-10-02T22:01:58.094Z,15.10
2017-10-02T22:04:25.622Z,15.10
2017-10-02T22:06:53.138Z,15.10
2017-10-02T22:09:21.328Z,15.10
2017-10-02T22:11:48.975Z,15.10
2017-10-02T22:14:16.506Z,15.10
2017-10-02T22:16:44.793Z,15.10
2017-10-02T22:19:12.311Z,15.10
2017-10-02T22:21:39.824Z,15.10
2017-10-02T22:24:07.333Z,15.00
2017-10-02T22:26:34.851Z,15.00
2017-10-02T22:29:02.382Z,15.00
2017-10-02T22:31:32.030Z,15.00
2017-10-02T22:33:59.639Z,15.00
2017-10-02T22:36:27.946Z,14.90
2017-10-02T22:38:55.454Z,15.00
2017-10-02T22:41:25.193Z,15.00
2017-10-02T22:43:52.770Z,14.90
2017-10-02T22:46:21.104Z,14.90
2017-10-02T22:48:48.590Z,14.90
2017-10-02T22:51:17.172Z,14.90
2017-10-02T22:53:45.482Z,14.90
2017-10-02T22:56:12.986Z,14.90
2017-10-02T22:58:40.474Z,14.90
2017-10-02T23:01:08.819Z,14.90
2017-10-02T23:03:37.102Z,14.90
2017-10-02T23:06:04.696Z,14.90
2017-10-02T23:08:33.006Z,14.90
2017-10-02T23:11:00.607Z,14.90
2017-10-02T23:13:28.105Z,14.90
2017-10-02T23:15:55.638Z,14.90
2017-10-02T23:18:23.894Z,14.90
2017-10-02T23:20:51.394Z,14.90
2017-10-02T23:23:18.931Z,14.90
2017-10-02T23:25:46.418Z,14.90
2017-10-02T23:28:13.916Z,14.90
2017-10-02T23:30:41.541Z,14.80
2017-10-02T23:33:09.059Z,14.80
2017-10-02T23:35:36.567Z,14.80
2017-10-02T23:38:06.675Z,14.80
2017-10-02T23:40:34.199Z,14.80
2017-10-02T23:43:01.921Z,14.80
2017-10-02T23:45:29.633Z,14.90
2017-10-02T23:47:58.871Z,14.90
2017-10-02T23:50:26.390Z,14.90
2017-10-02T23:52:53.917Z,14.80
2017-10-02T23:55:21.477Z,14.80
2017-10-02T23:57:49.004Z,14.80
